Time;durP1;ratioP1;P1;durP2;ratioP2;P2;SDS_P1;SDS_P2;PMS_P1;PMS_P2;Temp;Humidity;BMP_temperature;BMP_pressure;BME280_temperature;BME280_humidity;BME280_pressure;Samples;Min_cycle;Max_cycle;Signal;HPM_P1;HPM_P2
2023/04/10 00:00:31;;;;;;;;;;;;;;;;;;4936374;29;19962;-83
2023/04/10 00:02:57;;;;;;;;;;;;;;;;;;4937186;29;19989;-83
2023/04/10 00:05:22;;;;;;;;;;;;;;;;;;4921072;29;19975;-84
2023/04/10 00:07:48;;;;;;;;;;;;;;;;;;4921473;29;19907;-84
2023/04/10 00:10:17;;;;;;;;;;;;;;;;;;4920201;29;19912;-84
2023/04/10 00:12:42;;;;;;;;;;;;;;;;;;4917381;29;19975;-83
2023/04/10 00:15:08;;;;;;;;;;;;;;;;;;4930400;29;19978;-83
2023/04/10 00:17:34;;;;;;;;;;;;;;;;;;4917634;29;19915;-83
2023/04/10 00:20:03;;;;;;;;;;;;;;;;;;4900553;29;20360;-83
2023/04/10 00:22:32;;;;;;;;;;;;;;;;;;4915405;29;19919;-84
2023/04/10 00:24:58;;;;;;;;;;;;;;;;;;4899832;29;20291;-84
2023/04/10 00:27:24;;;;;;;;;;;;;;;;;;4900707;29;19923;-84
2023/04/10 00:29:50;;;;;;;;;;;;;;;;;;4887804;29;19916;-84
2023/04/10 00:32:19;;;;;;;;;;;;;;;;;;4919006;29;19916;-83
2023/04/10 00:34:47;;;;;;;;;;;;;;;;;;4903091;29;19926;-83
2023/04/10 00:37:13;;;;;;;;;;;;;;;;;;4914798;29;19915;-83
2023/04/10 00:39:38;;;;;;;;;;;;;;;;;;4914507;29;19971;-83
2023/04/10 00:42:08;;;;;;;;;;;;;;;;;;4934568;23;19928;-93
2023/04/10 00:44:36;;;;;;;;;;;;;;;;;;4907896;29;19931;-92
2023/04/10 00:47:01;;;;;;;;;;;;;;;;;;4892651;29;19915;-93
2023/04/10 00:49:27;;;;;;;;;;;;;;;;;;4897128;29;19926;-89
2023/04/10 00:51:53;;;;;;;;;;;;;;;;;;4893740;29;20014;-91
2023/04/10 00:54:19;;;;;;;;;;;;;;;;;;4878204;29;19916;-92
2023/04/10 00:56:45;;;;;;;;;;;;;;;;;;4892974;29;19953;-91
2023/04/10 00:59:14;;;;;;;;;;;;;;;;;;4891183;29;20006;-93
2023/04/10 01:01:40;;;;;;;;;;;;;;;;;;4889707;29;19962;-93
2023/04/10 01:04:08;;;;;;;;;;;;;;;;;;4904178;29;19916;-93
2023/04/10 01:06:36;;;;;;;;;;;;;;;;;;4886347;29;19947;-92
2023/04/10 01:09:04;;;;;;;;;;;;;;;;;;4873088;29;19931;-91
2023/04/10 01:11:33;;;;;;;;;;;;;;;;;;4878142;29;19927;-90
2023/04/10 01:13:59;;;;;;;;;;;;;;;;;;4909869;29;19916;-90
2023/04/10 01:16:24;;;;;;;;;;;;;;;;;;4878417;29;20026;-91
2023/04/10 01:18:54;;;;;;;;;;;;;;;;;;4872840;29;19912;-93
2023/04/10 01:21:20;;;;;;;;;;;;;;;;;;4871419;29;19927;-92
2023/04/10 01:23:46;;;;;;;;;;;;;;;;;;4885782;29;19916;-93
2023/04/10 01:26:11;;;;;;;;;;;;;;;;;;4853778;29;19923;-91
2023/04/10 01:28:37;;;;;;;;;;;;;;;;;;4868868;29;19923;-91
2023/04/10 01:31:02;;;;;;;;;;;;;;;;;;4857549;29;19916;-93
2023/04/10 01:33:28;;;;;;;;;;;;;;;;;;4859951;29;20380;-92
2023/04/10 01:35:54;;;;;;;;;;;;;;;;;;4889701;29;20298;-92
2023/04/10 01:38:22;;;;;;;;;;;;;;;;;;4860636;29;19970;-90
2023/04/10 01:40:49;;;;;;;;;;;;;;;;;;4873666;29;19924;-91
2023/04/10 01:43:18;;;;;;;;;;;;;;;;;;4874527;29;19976;-92
2023/04/10 01:45:48;;;;;;;;;;;;;;;;;;4858636;29;19920;-91
2023/04/10 01:48:16;;;;;;;;;;;;;;;;;;4874268;29;20329;-92
2023/04/10 01:50:42;;;;;;;;;;;;;;;;;;4889535;29;19915;-91
2023/04/10 01:53:07;;;;;;;;;;;;;;;;;;4874972;29;19920;-92
2023/04/10 01:55:33;;;;;;;;;;;;;;;;;;4876225;29;19940;-92
2023/04/10 01:58:03;;;;;;;;;;;;;;;;;;4873872;29;19915;-92
2023/04/10 02:00:29;;;;;;;;;;;;;;;;;;4904671;29;19927;-91
2023/04/10 02:02:57;;;;;;;;;;;;;;;;;;4905359;29;19908;-91
2023/04/10 02:05:24;;;;;;;;;;;;;;;;;;4905068;29;19928;-92
2023/04/10 02:07:50;;;;;;;;;;;;;;;;;;4905118;29;19911;-91
2023/04/10 02:10:16;;;;;;;;;;;;;;;;;;4904849;29;19935;-90
2023/04/10 02:12:44;;;;;;;;;;;;;;;;;;4904776;29;19908;-90
2023/04/10 02:15:10;;;;;;;;;;;;;;;;;;4888124;29;19927;-89
2023/04/10 02:17:41;;;;;;;;;;;;;;;;;;4889382;29;19908;-92
2023/04/10 02:20:07;;;;;;;;;;;;;;;;;;4886466;29;19916;-92
2023/04/10 02:22:33;;;;;;;;;;;;;;;;;;4885247;29;19975;-89
2023/04/10 02:25:02;;;;;;;;;;;;;;;;;;4899783;29;19920;-92
2023/04/10 02:27:29;;;;;;;;;;;;;;;;;;4877894;29;19916;-91
2023/04/10 02:29:57;;;;;;;;;;;;;;;;;;4886909;29;19919;-94
2023/04/10 02:32:22;;;;;;;;;;;;;;;;;;4869902;29;19911;-93
2023/04/10 02:34:48;;;;;;;;;;;;;;;;;;4874256;29;19927;-92
2023/04/10 02:37:13;;;;;;;;;;;;;;;;;;4875439;29;19916;-92
2023/04/10 02:39:42;;;;;;;;;;;;;;;;;;4879560;29;20010;-91
2023/04/10 02:42:10;;;;;;;;;;;;;;;;;;4910962;29;19919;-91
2023/04/10 02:44:39;;;;;;;;;;;;;;;;;;4895288;29;19919;-92
2023/04/10 02:47:05;;;;;;;;;;;;;;;;;;4905341;29;19941;-92
2023/04/10 02:49:36;;;;;;;;;;;;;;;;;;4890470;29;19916;-92
2023/04/10 02:52:09;;;;;;;;;;;;;;;;;;4869850;29;19951;-91
2023/04/10 02:54:35;;;;;;;;;;;;;;;;;;4852180;29;19923;-91
2023/04/10 02:57:00;;;;;;;;;;;;;;;;;;4855532;29;19916;-92
2023/04/10 02:59:26;;;;;;;;;;;;;;;;;;4856273;29;19912;-92
2023/04/10 03:01:53;;;;;;;;;;;;;;;;;;4871564;29;19920;-91
2023/04/10 03:04:19;;;;;;;;;;;;;;;;;;4898138;29;19916;-91
2023/04/10 03:06:45;;;;;;;;;;;;;;;;;;4859033;29;19971;-91
2023/04/10 03:09:10;;;;;;;;;;;;;;;;;;4857115;29;19915;-92
2023/04/10 03:11:36;;;;;;;;;;;;;;;;;;4856780;29;19928;-91
2023/04/10 03:14:02;;;;;;;;;;;;;;;;;;4856993;29;19951;-89
2023/04/10 03:16:28;;;;;;;;;;;;;;;;;;4855048;29;19920;-92
2023/04/10 03:18:54;;;;;;;;;;;;;;;;;;4858824;29;19927;-90
2023/04/10 03:21:20;;;;;;;;;;;;;;;;;;4887347;29;19915;-90
2023/04/10 03:23:47;;;;;;;;;;;;;;;;;;4881856;29;19919;-92
2023/04/10 03:26:13;;;;;;;;;;;;;;;;;;4880023;29;20386;-92
2023/04/10 03:28:38;;;;;;;;;;;;;;;;;;4884281;29;19915;-88
2023/04/10 03:31:04;;;;;;;;;;;;;;;;;;4891864;29;19915;-92
2023/04/10 03:33:33;;;;;;;;;;;;;;;;;;4888248;29;19915;-93
2023/04/10 03:35:59;;;;;;;;;;;;;;;;;;4886022;29;19983;-94
2023/04/10 03:38:24;;;;;;;;;;;;;;;;;;4873955;29;19923;-91
2023/04/10 03:40:51;;;;;;;;;;;;;;;;;;4870419;29;20360;-92
2023/04/10 03:43:18;;;;;;;;;;;;;;;;;;4870821;29;19949;-93
2023/04/10 03:45:47;;;;;;;;;;;;;;;;;;4871566;29;20296;-93
2023/04/10 03:48:13;;;;;;;;;;;;;;;;;;4870498;29;19916;-92
2023/04/10 03:50:44;;;;;;;;;;;;;;;;;;4857995;29;19927;-90
2023/04/10 03:53:09;;;;;;;;;;;;;;;;;;4854775;29;19916;-91
2023/04/10 03:55:37;;;;;;;;;;;;;;;;;;4872557;29;19951;-91
2023/04/10 03:58:03;;;;;;;;;;;;;;;;;;4856321;29;19955;-90
2023/04/10 04:00:29;;;;;;;;;;;;;;;;;;4870982;29;19931;-93
2023/04/10 04:03:10;;;;;;;;;;;;;;;;;;4870420;29;19946;-91
2023/04/10 04:05:54;;;;;;;;;;;;;;;;;;4879453;29;19970;-89
2023/04/10 04:08:29;;;;;;;;;;;;;;;;;;4879239;29;19920;-90
2023/04/10 04:11:12;;;;;;;;;;;;;;;;;;4884417;29;19988;-89
2023/04/10 04:13:55;;;;;;;;;;;;;;;;;;4872150;29;19987;-88
2023/04/10 04:16:40;;;;;;;;;;;;;;;;;;4887892;29;19929;-87
2023/04/10 04:19:20;;;;;;;;;;;;;;;;;;4870244;29;20016;-89
2023/04/10 04:22:04;;;;;;;;;;;;;;;;;;4871984;29;19928;-91
2023/04/10 04:24:49;;;;;;;;;;;;;;;;;;4888603;29;19918;-90
2023/04/10 04:27:30;;;;;;;;;;;;;;;;;;4901481;29;19900;-90
2023/04/10 04:30:06;;;;;;;;;;;;;;;;;;4902020;29;19900;-89
2023/04/10 04:32:42;;;;;;;;;;;;;;;;;;4885548;29;19900;-89
2023/04/10 04:35:27;;;;;;;;;;;;;;;;;;4895331;29;20515;-90
2023/04/10 04:38:25;;;;;;;;;;;;;;;;;;4911979;29;19943;-90
2023/04/10 04:41:06;;;;;;;;;;;;;;;;;;4875439;29;19957;-90
2023/04/10 04:43:42;;;;;;;;;;;;;;;;;;4878841;29;20367;-87
2023/04/10 04:46:24;;;;;;;;;;;;;;;;;;4876301;29;19915;-88
2023/04/10 04:48:58;;;;;;;;;;;;;;;;;;4875371;29;19923;-91
2023/04/10 04:51:44;;;;;;;;;;;;;;;;;;4874453;29;22131;-89
2023/04/10 04:54:30;;;;;;;;;;;;;;;;;;4891528;29;19915;-90
2023/04/10 04:57:18;;;;;;;;;;;;;;;;;;4889512;29;20295;-88
2023/04/10 05:00:10;;;;;;;;;;;;;;;;;;4870380;29;20295;-91
2023/04/10 05:03:05;;;;;;;;;;;;;;;;;;4891297;29;20074;-91
2023/04/10 05:06:10;;;;;;;;;;;;;;;;;;4899148;29;19920;-89
2023/04/10 05:08:46;;;;;;;;;;;;;;;;;;4873565;29;19915;-89
2023/04/10 05:11:32;;;;;;;;;;;;;;;;;;5000441;23;19927;-89
2023/04/10 05:14:36;;;;;;;;;;;;;;;;;;4935670;29;19925;-90
2023/04/10 05:17:23;;;;;;;;;;;;;;;;;;4878512;29;20379;-90
2023/04/10 05:19:57;;;;;;;;;;;;;;;;;;4871716;29;20359;-88
2023/04/10 05:22:42;;;;;;;;;;;;;;;;;;4876192;29;19927;-89
2023/04/10 05:25:25;;;;;;;;;;;;;;;;;;4869099;29;19947;-91
2023/04/10 05:28:19;;;;;;;;;;;;;;;;;;4909899;29;19957;-90
2023/04/10 05:30:57;;;;;;;;;;;;;;;;;;4906411;29;19904;-90
2023/04/10 05:33:41;;;;;;;;;;;;;;;;;;4924521;29;19955;-90
2023/04/10 05:36:26;;;;;;;;;;;;;;;;;;4911170;29;19908;-90
2023/04/10 05:39:21;;;;;;;;;;;;;;;;;;4940399;28;19938;-88
2023/04/10 05:41:57;;;;;;;;;;;;;;;;;;4894166;29;19923;-90
2023/04/10 05:44:42;;;;;;;;;;;;;;;;;;4919741;29;19979;-89
2023/04/10 05:47:28;;;;;;;;;;;;;;;;;;4929402;29;19915;-90
2023/04/10 05:50:09;;;;;;;;;;;;;;;;;;4890002;29;19903;-91
2023/04/10 05:52:50;;;;;;;;;;;;;;;;;;4882766;29;19949;-93
2023/04/10 05:55:41;;;;;;;;;;;;;;;;;;4907608;29;20003;-89
2023/04/10 05:58:22;;;;;;;;;;;;;;;;;;4880053;29;19916;-90
2023/04/10 06:01:06;;;;;;;;;;;;;;;;;;4878706;29;20327;-90
2023/04/10 06:04:01;;;;;;;;;;;;;;;;;;4877546;29;19915;-92
2023/04/10 06:06:28;;;;;;;;;;;;;;;;;;4855678;29;19970;-92
2023/04/10 06:08:54;;;;;;;;;;;;;;;;;;4856729;29;19923;-91
2023/04/10 06:11:20;;;;;;;;;;;;;;;;;;4872386;29;19919;-92
2023/04/10 06:13:50;;;;;;;;;;;;;;;;;;4857999;29;19991;-91
2023/04/10 06:16:15;;;;;;;;;;;;;;;;;;4859197;29;19951;-90
2023/04/10 06:18:42;;;;;;;;;;;;;;;;;;4879673;29;19999;-89
2023/04/10 06:21:08;;;;;;;;;;;;;;;;;;4870347;29;19936;-88
2023/04/10 06:23:34;;;;;;;;;;;;;;;;;;4869604;29;20296;-86
2023/04/10 06:26:00;;;;;;;;;;;;;;;;;;4863380;29;19916;-87
2023/04/10 06:28:25;;;;;;;;;;;;;;;;;;4895260;29;19923;-93
2023/04/10 06:30:54;;;;;;;;;;;;;;;;;;4875246;29;19916;-92
2023/04/10 06:33:27;;;;;;;;;;;;;;;;;;4887278;29;19987;-91
2023/04/10 06:35:53;;;;;;;;;;;;;;;;;;4862964;29;20388;-90
2023/04/10 06:38:19;;;;;;;;;;;;;;;;;;4874435;29;19922;-91
2023/04/10 06:40:44;;;;;;;;;;;;;;;;;;4873399;29;19920;-92
2023/04/10 06:43:10;;;;;;;;;;;;;;;;;;4941887;23;19932;-80
2023/04/10 06:45:37;;;;;;;;;;;;;;;;;;4911927;29;19915;-80
2023/04/10 06:48:03;;;;;;;;;;;;;;;;;;4911518;29;19918;-80
2023/04/10 06:50:29;;;;;;;;;;;;;;;;;;4926421;29;19919;-81
2023/04/10 06:52:58;;;;;;;;;;;;;;;;;;4921704;29;19916;-80
2023/04/10 06:55:24;;;;;;;;;;;;;;;;;;4922030;29;19916;-80
2023/04/10 06:57:54;;;;;;;;;;;;;;;;;;4918694;29;19916;-80
2023/04/10 07:00:20;;;;;;;;;;;;;;;;;;4888127;29;19923;-80
2023/04/10 07:02:46;;;;;;;;;;;;;;;;;;4903389;29;19912;-80
2023/04/10 07:05:12;;;;;;;;;;;;;;;;;;4920047;29;19919;-80
2023/04/10 07:07:38;;;;;;;;;;;;;;;;;;4904746;29;19919;-81
2023/04/10 07:10:03;;;;;;;;;;;;;;;;;;4903925;29;19916;-80
2023/04/10 07:12:29;;;;;;;;;;;;;;;;;;4904013;29;19920;-82
2023/04/10 07:14:55;;;;;;;;;;;;;;;;;;4889118;29;19915;-81
2023/04/10 07:17:21;;;;;;;;;;;;;;;;;;4904430;29;19915;-81
2023/04/10 07:19:49;;;;;;;;;;;;;;;;;;4888959;29;19965;-80
2023/04/10 07:22:18;;;;;;;;;;;;;;;;;;4891271;29;19923;-83
2023/04/10 07:24:53;;;;;;;;;;;;;;;;;;4891779;29;19957;-81
2023/04/10 07:27:19;;;;;;;;;;;;;;;;;;4890445;29;19915;-79
2023/04/10 07:29:45;;;;;;;;;;;;;;;;;;4900360;29;19911;-80
2023/04/10 07:32:11;;;;;;;;;;;;;;;;;;4905993;29;20006;-80
2023/04/10 07:34:36;;;;;;;;;;;;;;;;;;4905710;29;19982;-80
2023/04/10 07:37:02;;;;;;;;;;;;;;;;;;4921647;29;19922;-80
2023/04/10 07:39:27;;;;;;;;;;;;;;;;;;4905545;29;19923;-80
2023/04/10 07:41:54;;;;;;;;;;;;;;;;;;4921841;29;19968;-80
2023/04/10 07:44:19;;;;;;;;;;;;;;;;;;4916740;29;19986;-81
2023/04/10 07:46:46;;;;;;;;;;;;;;;;;;4911573;29;19915;-81
2023/04/10 07:49:12;;;;;;;;;;;;;;;;;;4912714;29;20378;-80
2023/04/10 07:51:38;;;;;;;;;;;;;;;;;;4927622;29;19915;-79
2023/04/10 07:54:03;;;;;;;;;;;;;;;;;;4928992;29;19957;-81
2023/04/10 07:56:32;;;;;;;;;;;;;;;;;;4911279;29;19994;-81
2023/04/10 07:58:57;;;;;;;;;;;;;;;;;;4925322;29;19922;-80
2023/04/10 08:01:23;;;;;;;;;;;;;;;;;;4895281;29;19919;-80
2023/04/10 08:03:49;;;;;;;;;;;;;;;;;;4925008;29;20002;-81
2023/04/10 08:06:14;;;;;;;;;;;;;;;;;;4893330;29;19919;-80
2023/04/10 08:08:40;;;;;;;;;;;;;;;;;;4923636;29;19922;-80
2023/04/10 08:11:06;;;;;;;;;;;;;;;;;;4905868;29;19915;-80
2023/04/10 08:13:32;;;;;;;;;;;;;;;;;;4923501;29;19933;-80
2023/04/10 08:15:57;;;;;;;;;;;;;;;;;;4891794;29;19975;-80
2023/04/10 08:18:23;;;;;;;;;;;;;;;;;;4907377;29;19919;-81
2023/04/10 08:20:49;;;;;;;;;;;;;;;;;;4908950;29;19919;-79
2023/04/10 08:23:14;;;;;;;;;;;;;;;;;;4926304;29;19919;-81
2023/04/10 08:25:40;;;;;;;;;;;;;;;;;;4913408;29;19915;-80
2023/04/10 08:28:06;;;;;;;;;;;;;;;;;;4913902;29;19923;-81
2023/04/10 08:30:32;;;;;;;;;;;;;;;;;;4930505;29;19916;-81
2023/04/10 08:32:58;;;;;;;;;;;;;;;;;;4931319;29;19979;-80
2023/04/10 08:35:24;;;;;;;;;;;;;;;;;;4914994;29;19916;-80
2023/04/10 08:37:49;;;;;;;;;;;;;;;;;;4937879;29;19915;-82
2023/04/10 08:40:15;;;;;;;;;;;;;;;;;;4923891;29;19950;-82
2023/04/10 08:42:40;;;;;;;;;;;;;;;;;;4940589;29;19930;-81
2023/04/10 08:45:14;;;;;;;;;;;;;;;;;;4926418;29;19925;-85
2023/04/10 08:50:24;;;;;;;;;;;;;;;;;;5430829;23;19912;-86
2023/04/10 08:53:01;;;;;;;;;;;;;;;;;;5011342;23;19927;-85
2023/04/10 08:55:44;;;;;;;;;;;;;;;;;;4921406;29;19922;-85
2023/04/10 08:58:19;;;;;;;;;;;;;;;;;;4924769;29;19944;-86
2023/04/10 09:00:55;;;;;;;;;;;;;;;;;;4895046;29;19928;-86
2023/04/10 09:03:20;;;;;;;;;;;;;;;;;;4922531;29;19944;-88
2023/04/10 09:11:12;;;;;;;;;;;;;;;;;;5098926;23;19911;-85
2023/04/10 09:13:45;;;;;;;;;;;;;;;;;;4943605;28;19919;-87
2023/04/10 09:16:14;;;;;;;;;;;;;;;;;;4912747;28;19927;-84
2023/04/10 09:18:40;;;;;;;;;;;;;;;;;;4928016;28;19904;-86
2023/04/10 09:21:16;;;;;;;;;;;;;;;;;;4924915;29;19961;-86
2023/04/10 09:23:44;;;;;;;;;;;;;;;;;;4925289;29;19920;-86
2023/04/10 09:26:15;;;;;;;;;;;;;;;;;;4925641;29;19904;-87
2023/04/10 09:28:40;;;;;;;;;;;;;;;;;;4940060;28;19928;-85
2023/04/10 09:33:42;;;;;;;;;;;;;;;;;;4922954;29;19912;-85
2023/04/10 09:36:11;;;;;;;;;;;;;;;;;;5294907;23;19927;-85
2023/04/10 09:38:39;;;;;;;;;;;;;;;;;;4911007;29;19930;-84
2023/04/10 09:41:04;;;;;;;;;;;;;;;;;;5296045;23;19927;-85
2023/04/10 09:46:11;;;;;;;;;;;;;;;;;;4940849;29;19926;-85
2023/04/10 09:48:59;;;;;;;;;;;;;;;;;;4925623;29;19924;-84
2023/04/10 09:51:51;;;;;;;;;;;;;;;;;;4942037;29;19919;-85
2023/04/10 09:54:27;;;;;;;;;;;;;;;;;;4941651;29;19923;-85
2023/04/10 09:59:52;;;;;;;;;;;;;;;;;;;;;
2023/04/10 10:06:25;;;;;;;;;;;;;;;;;;;;;
2023/04/10 10:09:09;;;;;;;;;;;;;;;;;;4903967;29;19904;-85
2023/04/10 10:18:56;;;;;;;;;;;;;;;;;;4887643;29;19932;-85
2023/04/10 10:30:02;;;;;;;;;;;;;;;;;;5046742;23;19919;-81
2023/04/10 10:32:32;;;;;;;;;;;;;;;;;;4926227;28;19910;-85
2023/04/10 10:35:09;;;;;;;;;;;;;;;;;;5032343;23;19911;-86
2023/04/10 10:37:58;;;;;;;;;;;;;;;;;;5266157;23;19938;-87
2023/04/10 10:45:48;;;;;;;;;;;;;;;;;;5012938;23;19911;-85
2023/04/10 10:48:25;;;;;;;;;;;;;;;;;;4967227;23;19931;-86
2023/04/10 10:50:58;;;;;;;;;;;;;;;;;;4923191;29;19920;-85
2023/04/10 10:53:33;;;;;;;;;;;;;;;;;;4914721;29;19915;-84
2023/04/10 10:56:15;;;;;;;;;;;;;;;;;;4886558;29;19907;-82
2023/04/10 10:58:48;;;;;;;;;;;;;;;;;;4896979;29;19944;-83
2023/04/10 11:01:21;;;;;;;;;;;;;;;;;;4908886;29;19945;-84
2023/04/10 11:03:46;;;;;;;;;;;;;;;;;;4882132;29;19919;-86
2023/04/10 11:06:12;;;;;;;;;;;;;;;;;;4876137;29;19940;-88
2023/04/10 11:08:42;;;;;;;;;;;;;;;;;;4842198;29;19960;-75
2023/04/10 11:11:08;;;;;;;;;;;;;;;;;;4866651;29;19916;-77
2023/04/10 11:13:33;;;;;;;;;;;;;;;;;;4843549;29;19916;-77
2023/04/10 11:16:01;;;;;;;;;;;;;;;;;;4874837;29;19912;-78
2023/04/10 11:18:27;;;;;;;;;;;;;;;;;;4865845;29;19923;-75
2023/04/10 11:20:54;;;;;;;;;;;;;;;;;;4885806;29;20299;-75
2023/04/10 11:23:20;;;;;;;;;;;;;;;;;;4856531;29;20380;-76
2023/04/10 11:25:46;;;;;;;;;;;;;;;;;;4861696;29;20024;-75
2023/04/10 11:28:11;;;;;;;;;;;;;;;;;;4876461;29;19927;-76
2023/04/10 11:30:40;;;;;;;;;;;;;;;;;;4870970;29;20384;-75
2023/04/10 11:33:05;;;;;;;;;;;;;;;;;;4866446;29;19917;-77
2023/04/10 11:35:31;;;;;;;;;;;;;;;;;;4872812;29;19915;-78
2023/04/10 11:37:57;;;;;;;;;;;;;;;;;;4861741;29;20381;-77
2023/04/10 11:40:22;;;;;;;;;;;;;;;;;;4871540;29;19916;-77
2023/04/10 11:42:48;;;;;;;;;;;;;;;;;;4867337;29;20315;-77
2023/04/10 11:45:13;;;;;;;;;;;;;;;;;;4864797;29;20030;-77
2023/04/10 11:47:39;;;;;;;;;;;;;;;;;;4858493;29;19920;-76
2023/04/10 11:50:05;;;;;;;;;;;;;;;;;;4861767;29;19916;-74
2023/04/10 11:52:30;;;;;;;;;;;;;;;;;;4870057;29;19920;-77
2023/04/10 11:54:56;;;;;;;;;;;;;;;;;;4882469;29;19916;-77
2023/04/10 11:57:21;;;;;;;;;;;;;;;;;;4871122;29;20336;-78
2023/04/10 11:59:47;;;;;;;;;;;;;;;;;;4887271;29;19916;-77
2023/04/10 12:02:13;;;;;;;;;;;;;;;;;;4872992;29;20436;-77
2023/04/10 12:04:38;;;;;;;;;;;;;;;;;;4875082;29;19923;-77
2023/04/10 12:07:05;;;;;;;;;;;;;;;;;;4876427;29;19939;-77
2023/04/10 12:09:30;;;;;;;;;;;;;;;;;;4878847;29;19943;-77
2023/04/10 12:11:58;;;;;;;;;;;;;;;;;;4863054;29;19931;-76
2023/04/10 12:14:23;;;;;;;;;;;;;;;;;;4874863;29;19920;-76
2023/04/10 12:16:49;;;;;;;;;;;;;;;;;;4877057;29;19915;-77
2023/04/10 12:19:15;;;;;;;;;;;;;;;;;;4875888;29;19927;-77
2023/04/10 12:21:44;;;;;;;;;;;;;;;;;;4874834;29;19924;-81
2023/04/10 12:24:10;;;;;;;;;;;;;;;;;;4881707;29;19959;-76
2023/04/10 12:26:35;;;;;;;;;;;;;;;;;;4888044;29;20383;-76
2023/04/10 12:29:01;;;;;;;;;;;;;;;;;;4869921;29;19916;-76
2023/04/10 12:31:29;;;;;;;;;;;;;;;;;;4872787;29;20134;-76
2023/04/10 12:33:58;;;;;;;;;;;;;;;;;;4876183;29;19916;-75
2023/04/10 12:36:25;;;;;;;;;;;;;;;;;;4868206;29;19986;-75
2023/04/10 12:38:51;;;;;;;;;;;;;;;;;;4856909;29;19959;-75
2023/04/10 12:41:19;;;;;;;;;;;;;;;;;;4878966;29;19920;-74
2023/04/10 12:43:45;;;;;;;;;;;;;;;;;;4870980;29;20445;-77
2023/04/10 12:46:10;;;;;;;;;;;;;;;;;;4892392;29;19917;-75
2023/04/10 12:48:36;;;;;;;;;;;;;;;;;;4863511;29;20380;-76
2023/04/10 12:51:02;;;;;;;;;;;;;;;;;;4871446;29;20399;-75
2023/04/10 12:53:28;;;;;;;;;;;;;;;;;;4864809;29;19964;-74
2023/04/10 12:55:54;;;;;;;;;;;;;;;;;;4876931;29;20011;-75
2023/04/10 12:58:26;;;;;;;;;;;;;;;;;;4877485;29;19963;-76
2023/04/10 13:00:52;;;;;;;;;;;;;;;;;;4869094;29;19920;-75
2023/04/10 13:03:17;;;;;;;;;;;;;;;;;;4871535;29;19935;-76
2023/04/10 13:05:43;;;;;;;;;;;;;;;;;;4876223;29;19916;-76
2023/04/10 13:08:08;;;;;;;;;;;;;;;;;;4871326;29;19927;-76
2023/04/10 13:10:36;;;;;;;;;;;;;;;;;;4833475;29;19999;-75
2023/04/10 13:13:02;;;;;;;;;;;;;;;;;;4867674;29;19917;-75
2023/04/10 13:15:27;;;;;;;;;;;;;;;;;;4864165;29;19924;-74
2023/04/10 13:17:53;;;;;;;;;;;;;;;;;;4877311;29;19923;-74
2023/04/10 13:20:18;;;;;;;;;;;;;;;;;;4873610;29;19920;-74
2023/04/10 13:22:44;;;;;;;;;;;;;;;;;;4891713;29;20340;-74
2023/04/10 13:25:10;;;;;;;;;;;;;;;;;;4873027;29;20327;-74
2023/04/10 13:27:35;;;;;;;;;;;;;;;;;;4871135;29;20015;-75
2023/04/10 13:30:01;;;;;;;;;;;;;;;;;;4870821;29;19955;-74
2023/04/10 13:32:27;;;;;;;;;;;;;;;;;;4878763;29;20007;-75
2023/04/10 13:34:53;;;;;;;;;;;;;;;;;;4877062;29;19974;-74
2023/04/10 13:37:19;;;;;;;;;;;;;;;;;;4873195;29;19920;-75
2023/04/10 13:39:44;;;;;;;;;;;;;;;;;;4870591;29;19967;-75
2023/04/10 13:42:10;;;;;;;;;;;;;;;;;;4853301;29;20319;-74
2023/04/10 13:44:35;;;;;;;;;;;;;;;;;;4859488;29;19913;-75
2023/04/10 13:47:01;;;;;;;;;;;;;;;;;;4797925;29;1958770;-75
2023/04/10 13:49:29;;;;;;;;;;;;;;;;;;4871904;29;19920;-75
2023/04/10 13:51:54;;;;;;;;;;;;;;;;;;4867331;29;20000;-75
2023/04/10 13:54:20;;;;;;;;;;;;;;;;;;4886119;29;19961;-75
2023/04/10 13:56:45;;;;;;;;;;;;;;;;;;4862705;29;20010;-75
2023/04/10 13:59:11;;;;;;;;;;;;;;;;;;4862267;29;19932;-74
2023/04/10 14:01:39;;;;;;;;;;;;;;;;;;4885881;29;19916;-75
2023/04/10 14:04:04;;;;;;;;;;;;;;;;;;4871708;29;19970;-76
2023/04/10 14:06:30;;;;;;;;;;;;;;;;;;4856254;29;19951;-76
2023/04/10 14:08:55;;;;;;;;;;;;;;;;;;4862822;29;19916;-76
2023/04/10 14:11:21;;;;;;;;;;;;;;;;;;4887615;29;19963;-76
2023/04/10 14:13:50;;;;;;;;;;;;;;;;;;4854641;29;19923;-76
2023/04/10 14:16:15;;;;;;;;;;;;;;;;;;4864624;29;19920;-76
2023/04/10 14:18:41;;;;;;;;;;;;;;;;;;4875102;29;19916;-76
2023/04/10 14:21:06;;;;;;;;;;;;;;;;;;4865272;29;20003;-76
2023/04/10 14:23:32;;;;;;;;;;;;;;;;;;4871725;29;19916;-76
2023/04/10 14:25:57;;;;;;;;;;;;;;;;;;4851948;29;19968;-76
2023/04/10 14:28:23;;;;;;;;;;;;;;;;;;4874746;29;19924;-75
2023/04/10 14:30:48;;;;;;;;;;;;;;;;;;4877333;29;19967;-76
2023/04/10 14:33:14;;;;;;;;;;;;;;;;;;4865838;29;19916;-76
2023/04/10 14:35:40;;;;;;;;;;;;;;;;;;4869265;29;19960;-75
2023/04/10 14:38:05;;;;;;;;;;;;;;;;;;4871328;29;19923;-76
2023/04/10 14:40:31;;;;;;;;;;;;;;;;;;4862411;29;19916;-76
2023/04/10 14:42:56;;;;;;;;;;;;;;;;;;4875419;29;19967;-75
2023/04/10 14:45:22;;;;;;;;;;;;;;;;;;4862144;29;20015;-77
2023/04/10 14:47:47;;;;;;;;;;;;;;;;;;4869814;29;19926;-76
2023/04/10 14:50:13;;;;;;;;;;;;;;;;;;4864852;29;20325;-75
2023/04/10 14:52:38;;;;;;;;;;;;;;;;;;4862955;29;20307;-74
2023/04/10 14:55:04;;;;;;;;;;;;;;;;;;4876014;29;19950;-75
2023/04/10 14:57:29;;;;;;;;;;;;;;;;;;4880377;29;19945;-74
2023/04/10 14:59:55;;;;;;;;;;;;;;;;;;4895346;29;19983;-80
2023/04/10 15:02:21;;;;;;;;;;;;;;;;;;4884059;29;20011;-81
2023/04/10 15:04:46;;;;;;;;;;;;;;;;;;4883852;29;19951;-82
2023/04/10 15:07:12;;;;;;;;;;;;;;;;;;4863459;29;19915;-83
2023/04/10 15:09:37;;;;;;;;;;;;;;;;;;4896146;29;19916;-85
2023/04/10 15:12:03;;;;;;;;;;;;;;;;;;4866300;29;19955;-83
2023/04/10 15:14:28;;;;;;;;;;;;;;;;;;4874499;29;19935;-85
2023/04/10 15:16:54;;;;;;;;;;;;;;;;;;4870643;29;20285;-84
2023/04/10 15:19:20;;;;;;;;;;;;;;;;;;4876261;29;19916;-85
2023/04/10 15:21:45;;;;;;;;;;;;;;;;;;4904406;29;20430;-84
2023/04/10 15:24:11;;;;;;;;;;;;;;;;;;4873656;29;19924;-85
2023/04/10 15:26:39;;;;;;;;;;;;;;;;;;4866270;29;19916;-85
2023/04/10 15:29:15;;;;;;;;;;;;;;;;;;4870931;29;19979;-85
2023/04/10 15:31:40;;;;;;;;;;;;;;;;;;4875512;29;19916;-85
2023/04/10 15:34:06;;;;;;;;;;;;;;;;;;4858735;29;20010;-86
2023/04/10 15:36:31;;;;;;;;;;;;;;;;;;4863954;29;19963;-87
2023/04/10 15:38:58;;;;;;;;;;;;;;;;;;4860126;29;19923;-86
2023/04/10 15:41:24;;;;;;;;;;;;;;;;;;4862847;29;19920;-87
2023/04/10 15:43:49;;;;;;;;;;;;;;;;;;4883494;29;19916;-85
2023/04/10 15:46:16;;;;;;;;;;;;;;;;;;4850227;29;20014;-87
2023/04/10 15:48:42;;;;;;;;;;;;;;;;;;4873643;29;20392;-86
2023/04/10 15:51:07;;;;;;;;;;;;;;;;;;4875699;29;19945;-86
2023/04/10 15:53:33;;;;;;;;;;;;;;;;;;4874426;29;19923;-87
2023/04/10 15:56:01;;;;;;;;;;;;;;;;;;4873280;29;20372;-87
2023/04/10 15:58:29;;;;;;;;;;;;;;;;;;4876918;29;19920;-88
2023/04/10 16:00:55;;;;;;;;;;;;;;;;;;4865664;29;20141;-88
2023/04/10 16:03:20;;;;;;;;;;;;;;;;;;4885737;29;19937;-87
2023/04/10 16:05:46;;;;;;;;;;;;;;;;;;4879733;29;19939;-88
2023/04/10 16:08:12;;;;;;;;;;;;;;;;;;4865509;29;19916;-88
2023/04/10 16:10:37;;;;;;;;;;;;;;;;;;4908719;29;19916;-88
2023/04/10 16:13:06;;;;;;;;;;;;;;;;;;4891588;29;19916;-87
2023/04/10 16:15:32;;;;;;;;;;;;;;;;;;4914768;29;20018;-87
2023/04/10 16:17:57;;;;;;;;;;;;;;;;;;4878761;29;19920;-89
2023/04/10 16:20:23;;;;;;;;;;;;;;;;;;4881114;29;19923;-88
2023/04/10 16:22:48;;;;;;;;;;;;;;;;;;4866035;29;19948;-87
2023/04/10 16:25:14;;;;;;;;;;;;;;;;;;4882517;29;19963;-89
2023/04/10 16:27:39;;;;;;;;;;;;;;;;;;4871823;29;20014;-86
2023/04/10 16:30:05;;;;;;;;;;;;;;;;;;4873574;29;19916;-88
2023/04/10 16:32:30;;;;;;;;;;;;;;;;;;4879842;29;19916;-88
2023/04/10 16:34:56;;;;;;;;;;;;;;;;;;4878613;29;19916;-88
2023/04/10 16:37:22;;;;;;;;;;;;;;;;;;4874933;29;19915;-87
2023/04/10 16:39:50;;;;;;;;;;;;;;;;;;4880841;29;19956;-88
2023/04/10 16:42:16;;;;;;;;;;;;;;;;;;4863651;29;19959;-87
2023/04/10 16:44:41;;;;;;;;;;;;;;;;;;4873815;29;19951;-88
2023/04/10 16:47:12;;;;;;;;;;;;;;;;;;4898841;29;19952;-88
2023/04/10 16:49:39;;;;;;;;;;;;;;;;;;4870981;29;20282;-88
2023/04/10 16:52:04;;;;;;;;;;;;;;;;;;4872315;29;19949;-89
2023/04/10 16:54:30;;;;;;;;;;;;;;;;;;4867815;29;19920;-89
2023/04/10 16:56:55;;;;;;;;;;;;;;;;;;4853424;29;19916;-88
2023/04/10 16:59:21;;;;;;;;;;;;;;;;;;4866194;29;20014;-85
2023/04/10 17:04:29;;;;;;;;;;;;;;;;;;4975068;23;20418;-88
2023/04/10 17:06:54;;;;;;;;;;;;;;;;;;4902254;29;19962;-91
2023/04/10 17:09:20;;;;;;;;;;;;;;;;;;4871105;29;19949;-84
2023/04/10 17:11:46;;;;;;;;;;;;;;;;;;4894330;29;19957;-83
2023/04/10 17:14:14;;;;;;;;;;;;;;;;;;4892318;29;19916;-79
2023/04/10 17:16:40;;;;;;;;;;;;;;;;;;4905650;29;19930;-80
2023/04/10 17:19:06;;;;;;;;;;;;;;;;;;4928044;29;19916;-80
2023/04/10 17:21:31;;;;;;;;;;;;;;;;;;4893055;29;19919;-80
2023/04/10 17:23:57;;;;;;;;;;;;;;;;;;4919557;29;19953;-80
2023/04/10 17:26:23;;;;;;;;;;;;;;;;;;4910136;29;19915;-80
2023/04/10 17:28:51;;;;;;;;;;;;;;;;;;4893103;29;19922;-79
2023/04/10 17:31:17;;;;;;;;;;;;;;;;;;4917367;29;19916;-80
2023/04/10 17:33:42;;;;;;;;;;;;;;;;;;4879835;29;19966;-81
2023/04/10 17:36:08;;;;;;;;;;;;;;;;;;4870414;29;19916;-82
2023/04/10 17:38:36;;;;;;;;;;;;;;;;;;4917183;29;19915;-79
2023/04/10 17:41:01;;;;;;;;;;;;;;;;;;4890489;29;19926;-81